sensor_id;sensor_type;location;lat;lon;timestamp;pressure;altitude;pressure_sealevel;temperature;humidity
7836;BME280;3963;42.658;23.298;2023-05-25T00:01:37;45439.13;;;-144.44;100.00
7836;BME280;3963;42.658;23.298;2023-05-25T00:04:08;45458.88;;;-144.44;100.00
7836;BME280;3963;42.658;23.298;2023-05-25T00:06:35;45449.00;;;-144.44;100.00
7836;BME280;3963;42.658;23.298;2023-05-25T00:09:07;45486.56;;;-144.44;100.00
7836;BME280;3963;42.658;23.298;2023-05-25T00:11:34;45486.56;;;-144.44;100.00
7836;BME280;3963;42.658;23.298;2023-05-25T00:14:00;45508.28;;;-144.44;100.00
7836;BME280;3963;42.658;23.298;2023-05-25T00:16:27;45549.81;;;-144.44;100.00
7836;BME280;3963;42.658;23.298;2023-05-25T00:18:54;45532.00;;;-144.44;100.00
7836;BME280;3963;42.658;23.298;2023-05-25T00:21:21;45559.69;;;-144.44;100.00
7836;BME280;3963;42.658;23.298;2023-05-25T00:23:48;45575.50;;;-144.44;100.00
7836;BME280;3963;42.658;23.298;2023-05-25T00:26:16;45571.53;;;-144.44;100.00
7836;BME280;3963;42.658;23.298;2023-05-25T00:28:43;45543.88;;;-144.44;100.00
7836;BME280;3963;42.658;23.298;2023-05-25T00:31:10;45537.94;;;-144.44;100.00
7836;BME280;3963;42.658;23.298;2023-05-25T00:33:37;45534.00;;;-144.44;100.00
7836;BME280;3963;42.658;23.298;2023-05-25T00:36:04;45563.63;;;-144.44;100.00
7836;BME280;3963;42.658;23.298;2023-05-25T00:38:33;45620.94;;;-144.44;100.00
7836;BME280;3963;42.658;23.298;2023-05-25T00:41:00;45646.66;;;-144.44;100.00
7836;BME280;3963;42.658;23.298;2023-05-25T00:43:28;45702.00;;;-144.44;100.00
7836;BME280;3963;42.658;23.298;2023-05-25T00:45:55;45729.66;;;-144.44;100.00
7836;BME280;3963;42.658;23.298;2023-05-25T00:48:23;45737.56;;;-144.44;100.00
7836;BME280;3963;42.658;23.298;2023-05-25T00:50:53;45753.38;;;-144.44;100.00
7836;BME280;3963;42.658;23.298;2023-05-25T00:53:22;45737.56;;;-144.44;100.00
7836;BME280;3963;42.658;23.298;2023-05-25T00:55:55;45721.75;;;-144.44;100.00
7836;BME280;3963;42.658;23.298;2023-05-25T00:58:28;45741.53;;;-144.44;100.00
7836;BME280;3963;42.658;23.298;2023-05-25T01:00:57;45690.13;;;-144.44;100.00
7836;BME280;3963;42.658;23.298;2023-05-25T01:03:27;45698.03;;;-144.44;100.00
7836;BME280;3963;42.658;23.298;2023-05-25T01:06:01;45737.56;;;-144.44;100.00
7836;BME280;3963;42.658;23.298;2023-05-25T01:08:30;45769.19;;;-144.44;100.00
7836;BME280;3963;42.658;23.298;2023-05-25T01:10:59;45840.34;;;-144.44;100.00
7836;BME280;3963;42.658;23.298;2023-05-25T01:13:31;45802.78;;;-144.44;100.00
7836;BME280;3963;42.658;23.298;2023-05-25T01:15:57;45761.28;;;-144.44;100.00
7836;BME280;3963;42.658;23.298;2023-05-25T01:18:24;45696.06;;;-144.44;100.00
7836;BME280;3963;42.658;23.298;2023-05-25T01:20:58;45745.47;;;-144.44;100.00
7836;BME280;3963;42.658;23.298;2023-05-25T01:23:40;45745.47;;;-144.44;100.00
7836;BME280;3963;42.658;23.298;2023-05-25T01:26:12;45775.13;;;-144.44;100.00
7836;BME280;3963;42.658;23.298;2023-05-25T01:28:42;45785.00;;;-144.44;100.00
7836;BME280;3963;42.658;23.298;2023-05-25T01:31:13;45812.69;;;-144.44;100.00
7836;BME280;3963;42.658;23.298;2023-05-25T01:33:41;45785.00;;;-144.44;100.00
7836;BME280;3963;42.658;23.298;2023-05-25T01:36:09;45816.63;;;-144.44;100.00
7836;BME280;3963;42.658;23.298;2023-05-25T01:38:36;45870.00;;;-144.44;100.00
7836;BME280;3963;42.658;23.298;2023-05-25T01:41:03;45966.84;;;-144.44;100.00
7836;BME280;3963;42.658;23.298;2023-05-25T01:43:30;45941.16;;;-144.44;100.00
7836;BME280;3963;42.658;23.298;2023-05-25T01:46:04;45947.09;;;-144.44;100.00
7836;BME280;3963;42.658;23.298;2023-05-25T01:48:38;45964.88;;;-144.44;100.00
7836;BME280;3963;42.658;23.298;2023-05-25T01:51:16;45994.53;;;-144.44;100.00
7836;BME280;3963;42.658;23.298;2023-05-25T01:53:49;46057.78;;;-144.44;100.00
7836;BME280;3963;42.658;23.298;2023-05-25T01:56:19;46040.00;;;-144.44;100.00
7836;BME280;3963;42.658;23.298;2023-05-25T01:58:49;46041.97;;;-144.44;100.00
7836;BME280;3963;42.658;23.298;2023-05-25T02:01:17;46085.47;;;-144.44;100.00
7836;BME280;3963;42.658;23.298;2023-05-25T02:03:46;46075.56;;;-144.44;100.00
7836;BME280;3963;42.658;23.298;2023-05-25T02:06:16;45992.56;;;-144.44;100.00
7836;BME280;3963;42.658;23.298;2023-05-25T02:08:43;45970.81;;;-144.44;100.00
7836;BME280;3963;42.658;23.298;2023-05-25T02:11:12;45919.41;;;-144.44;100.00
7836;BME280;3963;42.658;23.298;2023-05-25T02:13:39;45968.84;;;-144.44;100.00
7836;BME280;3963;42.658;23.298;2023-05-25T02:16:06;45911.50;;;-144.44;100.00
7836;BME280;3963;42.658;23.298;2023-05-25T02:18:33;45870.00;;;-144.44;100.00
7836;BME280;3963;42.658;23.298;2023-05-25T02:21:00;45836.41;;;-144.44;100.00
7836;BME280;3963;42.658;23.298;2023-05-25T02:23:28;45792.91;;;-144.44;100.00
7836;BME280;3963;42.658;23.298;2023-05-25T02:25:55;45792.91;;;-144.44;100.00
7836;BME280;3963;42.658;23.298;2023-05-25T02:28:23;45848.25;;;-144.44;100.00
7836;BME280;3963;42.658;23.298;2023-05-25T02:30:50;45903.59;;;-144.44;100.00
7836;BME280;3963;42.658;23.298;2023-05-25T02:33:17;46038.00;;;-144.44;100.00
7836;BME280;3963;42.658;23.298;2023-05-25T02:35:44;46223.84;;;-144.44;100.00
7836;BME280;3963;42.658;23.298;2023-05-25T02:38:11;46330.59;;;-144.44;100.00
7836;BME280;3963;42.658;23.298;2023-05-25T02:40:39;46368.16;;;-144.44;100.00
7836;BME280;3963;42.658;23.298;2023-05-25T02:43:06;46417.56;;;-144.44;100.00
7836;BME280;3963;42.658;23.298;2023-05-25T02:45:33;46372.09;;;-144.44;100.00
7836;BME280;3963;42.658;23.298;2023-05-25T02:47:59;46372.09;;;-144.44;100.00
7836;BME280;3963;42.658;23.298;2023-05-25T02:50:26;46364.19;;;-144.44;100.00
7836;BME280;3963;42.658;23.298;2023-05-25T02:52:53;46346.41;;;-144.44;100.00
7836;BME280;3963;42.658;23.298;2023-05-25T02:55:20;46261.41;;;-144.44;100.00
7836;BME280;3963;42.658;23.298;2023-05-25T02:57:48;46196.16;;;-144.44;100.00
7836;BME280;3963;42.658;23.298;2023-05-25T03:00:16;46198.13;;;-144.44;100.00
7836;BME280;3963;42.658;23.298;2023-05-25T03:02:43;46154.66;;;-144.44;100.00
7836;BME280;3963;42.658;23.298;2023-05-25T03:05:13;46275.22;;;-144.44;100.00
7836;BME280;3963;42.658;23.298;2023-05-25T03:07:40;46336.50;;;-144.44;100.00
7836;BME280;3963;42.658;23.298;2023-05-25T03:10:08;46354.31;;;-144.44;100.00
7836;BME280;3963;42.658;23.298;2023-05-25T03:12:35;46399.78;;;-144.44;100.00
7836;BME280;3963;42.658;23.298;2023-05-25T03:15:04;46372.09;;;-144.44;100.00
7836;BME280;3963;42.658;23.298;2023-05-25T03:17:32;46360.25;;;-144.44;100.00
7836;BME280;3963;42.658;23.298;2023-05-25T03:19:59;46306.88;;;-144.44;100.00
7836;BME280;3963;42.658;23.298;2023-05-25T03:22:26;46291.03;;;-144.44;100.00
7836;BME280;3963;42.658;23.298;2023-05-25T03:24:52;46344.44;;;-144.44;100.00
7836;BME280;3963;42.658;23.298;2023-05-25T03:27:19;46342.44;;;-144.44;100.00
7836;BME280;3963;42.658;23.298;2023-05-25T03:29:47;46310.81;;;-144.44;100.00
7836;BME280;3963;42.658;23.298;2023-05-25T03:32:16;46320.69;;;-144.44;100.00
7836;BME280;3963;42.658;23.298;2023-05-25T03:34:43;46295.00;;;-144.44;100.00
7836;BME280;3963;42.658;23.298;2023-05-25T03:37:10;46320.69;;;-144.44;100.00
7836;BME280;3963;42.658;23.298;2023-05-25T03:39:37;46324.66;;;-144.44;100.00
7836;BME280;3963;42.658;23.298;2023-05-25T03:42:05;46283.13;;;-144.44;100.00
7836;BME280;3963;42.658;23.298;2023-05-25T03:44:31;46271.28;;;-144.44;100.00
7836;BME280;3963;42.658;23.298;2023-05-25T03:46:58;46223.84;;;-144.44;100.00
7836;BME280;3963;42.658;23.298;2023-05-25T03:49:27;46219.88;;;-144.44;100.00
7836;BME280;3963;42.658;23.298;2023-05-25T03:51:53;46289.06;;;-144.44;100.00
7836;BME280;3963;42.658;23.298;2023-05-25T03:54:20;46231.75;;;-144.44;100.00
7836;BME280;3963;42.658;23.298;2023-05-25T03:56:47;46267.31;;;-144.44;100.00
7836;BME280;3963;42.658;23.298;2023-05-25T03:59:14;46308.84;;;-144.44;100.00
7836;BME280;3963;42.658;23.298;2023-05-25T04:01:41;46255.47;;;-144.44;100.00
7836;BME280;3963;42.658;23.298;2023-05-25T04:04:07;46269.31;;;-144.44;100.00
7836;BME280;3963;42.658;23.298;2023-05-25T04:06:36;46277.22;;;-144.44;100.00
7836;BME280;3963;42.658;23.298;2023-05-25T04:09:03;46231.75;;;-144.44;100.00
7836;BME280;3963;42.658;23.298;2023-05-25T04:11:30;46279.19;;;-144.44;100.00
7836;BME280;3963;42.658;23.298;2023-05-25T04:13:57;46144.75;;;-144.44;100.00
7836;BME280;3963;42.658;23.298;2023-05-25T04:16:24;46075.56;;;-144.44;100.00
7836;BME280;3963;42.658;23.298;2023-05-25T04:18:51;46101.28;;;-144.44;100.00
7836;BME280;3963;42.658;23.298;2023-05-25T04:21:18;46105.22;;;-144.44;100.00
7836;BME280;3963;42.658;23.298;2023-05-25T04:23:47;46081.50;;;-144.44;100.00
7836;BME280;3963;42.658;23.298;2023-05-25T04:26:14;46030.09;;;-144.44;100.00
7836;BME280;3963;42.658;23.298;2023-05-25T04:28:41;46034.06;;;-144.44;100.00
7836;BME280;3963;42.658;23.298;2023-05-25T04:31:07;45951.03;;;-144.44;100.00
7836;BME280;3963;42.658;23.298;2023-05-25T04:33:34;45962.91;;;-144.44;100.00
7836;BME280;3963;42.658;23.298;2023-05-25T04:36:04;45931.28;;;-144.44;100.00
7836;BME280;3963;42.658;23.298;2023-05-25T04:38:31;45658.50;;;-144.44;100.00
7836;BME280;3963;42.658;23.298;2023-05-25T04:40:59;45555.72;;;-144.44;100.00
7836;BME280;3963;42.658;23.298;2023-05-25T04:43:26;45555.72;;;-144.44;100.00
7836;BME280;3963;42.658;23.298;2023-05-25T04:45:54;45551.78;;;-144.44;100.00
7836;BME280;3963;42.658;23.298;2023-05-25T04:48:21;45532.00;;;-144.44;100.00
7836;BME280;3963;42.658;23.298;2023-05-25T04:50:48;45500.38;;;-144.44;100.00
7836;BME280;3963;42.658;23.298;2023-05-25T04:53:16;45450.97;;;-144.44;100.00
7836;BME280;3963;42.658;23.298;2023-05-25T04:55:43;45413.44;;;-144.44;100.00
7836;BME280;3963;42.658;23.298;2023-05-25T04:58:11;45395.66;;;-144.44;100.00
7836;BME280;3963;42.658;23.298;2023-05-25T05:00:38;45373.91;;;-144.44;100.00
7836;BME280;3963;42.658;23.298;2023-05-25T05:03:05;45417.38;;;-144.44;100.00
7836;BME280;3963;42.658;23.298;2023-05-25T05:05:34;45393.66;;;-144.44;100.00
7836;BME280;3963;42.658;23.298;2023-05-25T05:08:01;45397.63;;;-144.44;100.00
7836;BME280;3963;42.658;23.298;2023-05-25T05:10:28;45391.69;;;-144.44;100.00
7836;BME280;3963;42.658;23.298;2023-05-25T05:12:55;45352.16;;;-144.44;100.00
7836;BME280;3963;42.658;23.298;2023-05-25T05:15:24;45377.84;;;-144.44;100.00
7836;BME280;3963;42.658;23.298;2023-05-25T05:17:51;45348.22;;;-144.44;100.00
7836;BME280;3963;42.658;23.298;2023-05-25T05:20:18;45393.66;;;-144.44;100.00
7836;BME280;3963;42.658;23.298;2023-05-25T05:22:44;45366.00;;;-144.44;100.00
7836;BME280;3963;42.658;23.298;2023-05-25T05:25:11;45389.72;;;-144.44;100.00
7836;BME280;3963;42.658;23.298;2023-05-25T05:27:38;45381.81;;;-144.44;100.00
7836;BME280;3963;42.658;23.298;2023-05-25T05:30:06;45362.03;;;-144.44;100.00
7836;BME280;3963;42.658;23.298;2023-05-25T05:32:39;45377.84;;;-144.44;100.00
7836;BME280;3963;42.658;23.298;2023-05-25T05:35:06;45367.97;;;-144.44;100.00
7836;BME280;3963;42.658;23.298;2023-05-25T05:37:33;45330.44;;;-144.44;100.00
7836;BME280;3963;42.658;23.298;2023-05-25T05:40:00;45306.72;;;-144.44;100.00
7836;BME280;3963;42.658;23.298;2023-05-25T05:42:27;45334.38;;;-144.44;100.00
7836;BME280;3963;42.658;23.298;2023-05-25T05:44:54;45310.66;;;-144.44;100.00
7836;BME280;3963;42.658;23.298;2023-05-25T05:47:21;45279.03;;;-144.44;99.55
7836;BME280;3963;42.658;23.298;2023-05-25T05:49:50;45288.91;;;-144.44;99.87
7836;BME280;3963;42.658;23.298;2023-05-25T05:52:16;45279.03;;;-144.44;99.92
7836;BME280;3963;42.658;23.298;2023-05-25T05:54:43;45288.91;;;-144.44;99.88
7836;BME280;3963;42.658;23.298;2023-05-25T05:57:10;45298.81;;;-144.44;99.23
7836;BME280;3963;42.658;23.298;2023-05-25T05:59:36;45279.03;;;-144.44;98.33
7836;BME280;3963;42.658;23.298;2023-05-25T06:02:04;45296.81;;;-144.44;98.01
7836;BME280;3963;42.658;23.298;2023-05-25T06:04:31;45263.22;;;-144.44;97.99
7836;BME280;3963;42.658;23.298;2023-05-25T06:06:59;45288.91;;;-144.44;97.66
7836;BME280;3963;42.658;23.298;2023-05-25T06:09:26;45253.34;;;-144.44;96.44
7836;BME280;3963;42.658;23.298;2023-05-25T06:11:53;45279.03;;;-144.44;96.35
7836;BME280;3963;42.658;23.298;2023-05-25T06:14:19;45249.41;;;-144.44;95.82
7836;BME280;3963;42.658;23.298;2023-05-25T06:16:46;45283.00;;;-144.44;95.63
7836;BME280;3963;42.658;23.298;2023-05-25T06:19:13;45286.94;;;-144.44;95.57
7836;BME280;3963;42.658;23.298;2023-05-25T06:21:39;45273.13;;;-144.44;94.48
7836;BME280;3963;42.658;23.298;2023-05-25T06:24:08;45261.25;;;-144.44;93.83
7836;BME280;3963;42.658;23.298;2023-05-25T06:26:35;45273.13;;;-144.44;93.09
7836;BME280;3963;42.658;23.298;2023-05-25T06:29:01;45284.97;;;-144.44;92.03
7836;BME280;3963;42.658;23.298;2023-05-25T06:31:28;45286.94;;;-144.44;91.02
7836;BME280;3963;42.658;23.298;2023-05-25T06:33:55;45290.91;;;-144.44;90.54
7836;BME280;3963;42.658;23.298;2023-05-25T06:36:22;45279.03;;;-144.44;89.83
7836;BME280;3963;42.658;23.298;2023-05-25T06:38:48;45290.91;;;-144.44;89.49
7836;BME280;3963;42.658;23.298;2023-05-25T06:41:17;45296.81;;;-144.44;87.55
7836;BME280;3963;42.658;23.298;2023-05-25T06:43:44;45296.81;;;-144.44;86.47
7836;BME280;3963;42.658;23.298;2023-05-25T06:46:10;45318.56;;;-144.44;85.55
7836;BME280;3963;42.658;23.298;2023-05-25T06:48:42;45322.53;;;-144.44;83.50
7836;BME280;3963;42.658;23.298;2023-05-25T06:51:09;45306.72;;;-144.44;84.06
7836;BME280;3963;42.658;23.298;2023-05-25T06:53:36;45302.75;;;-144.44;83.65
7836;BME280;3963;42.658;23.298;2023-05-25T06:56:03;45336.34;;;-144.44;82.79
7836;BME280;3963;42.658;23.298;2023-05-25T06:58:32;45366.00;;;-144.44;80.86
7836;BME280;3963;42.658;23.298;2023-05-25T07:00:59;45379.84;;;-144.44;80.51
7836;BME280;3963;42.658;23.298;2023-05-25T07:03:25;45399.59;;;-144.44;79.72
7836;BME280;3963;42.658;23.298;2023-05-25T07:05:52;45385.75;;;-144.44;79.36
7836;BME280;3963;42.658;23.298;2023-05-25T07:08:19;45366.00;;;-144.44;81.19
7836;BME280;3963;42.658;23.298;2023-05-25T07:10:46;45395.66;;;-144.44;80.89
7836;BME280;3963;42.658;23.298;2023-05-25T07:13:13;45411.44;;;-144.44;80.29
7836;BME280;3963;42.658;23.298;2023-05-25T07:15:41;45421.34;;;-144.44;78.78
7836;BME280;3963;42.658;23.298;2023-05-25T07:18:08;45429.25;;;-144.44;76.60
7836;BME280;3963;42.658;23.298;2023-05-25T07:20:37;45480.63;;;-144.44;76.88
7836;BME280;3963;42.658;23.298;2023-05-25T07:23:06;45427.25;;;-144.44;76.65
7836;BME280;3963;42.658;23.298;2023-05-25T07:25:33;45484.56;;;-144.44;74.98
7836;BME280;3963;42.658;23.298;2023-05-25T07:28:00;45472.72;;;-144.44;72.78
7836;BME280;3963;42.658;23.298;2023-05-25T07:30:27;45472.72;;;-144.44;73.12
7836;BME280;3963;42.658;23.298;2023-05-25T07:32:55;45498.41;;;-144.44;72.59
7836;BME280;3963;42.658;23.298;2023-05-25T07:35:22;45476.66;;;-144.44;72.00
7836;BME280;3963;42.658;23.298;2023-05-25T07:37:55;45474.69;;;-144.44;73.81
7836;BME280;3963;42.658;23.298;2023-05-25T07:40:22;45504.34;;;-144.44;71.01
7836;BME280;3963;42.658;23.298;2023-05-25T07:42:49;45486.56;;;-144.44;70.29
7836;BME280;3963;42.658;23.298;2023-05-25T07:45:15;45502.38;;;-144.44;69.37
7836;BME280;3963;42.658;23.298;2023-05-25T07:47:42;45488.53;;;-144.44;70.04
7836;BME280;3963;42.658;23.298;2023-05-25T07:50:10;45401.56;;;-144.44;71.98
7836;BME280;3963;42.658;23.298;2023-05-25T07:52:37;45429.25;;;-144.44;74.30
7836;BME280;3963;42.658;23.298;2023-05-25T07:55:05;45425.28;;;-144.44;73.75
7836;BME280;3963;42.658;23.298;2023-05-25T07:57:32;45431.22;;;-144.44;73.21
7836;BME280;3963;42.658;23.298;2023-05-25T07:59:58;45371.94;;;-144.44;74.35
7836;BME280;3963;42.658;23.298;2023-05-25T08:02:26;45320.53;;;-144.44;76.11
7836;BME280;3963;42.658;23.298;2023-05-25T08:04:52;45342.28;;;-144.44;76.36
7836;BME280;3963;42.658;23.298;2023-05-25T08:07:21;45294.84;;;-144.44;78.36
7836;BME280;3963;42.658;23.298;2023-05-25T08:09:49;45318.56;;;-144.44;80.37
7836;BME280;3963;42.658;23.298;2023-05-25T08:12:15;45290.91;;;-144.44;80.39
7836;BME280;3963;42.658;23.298;2023-05-25T08:14:42;45277.06;;;-144.44;80.27
7836;BME280;3963;42.658;23.298;2023-05-25T08:17:09;45275.09;;;-144.44;80.82
7836;BME280;3963;42.658;23.298;2023-05-25T08:19:37;45265.22;;;-144.44;81.18
7836;BME280;3963;42.658;23.298;2023-05-25T08:22:04;45257.31;;;-144.44;81.43
7836;BME280;3963;42.658;23.298;2023-05-25T08:24:32;45275.09;;;-144.44;81.51
7836;BME280;3963;42.658;23.298;2023-05-25T08:26:58;45237.53;;;-144.44;82.47
7836;BME280;3963;42.658;23.298;2023-05-25T08:29:26;45213.81;;;-144.44;83.28
7836;BME280;3963;42.658;23.298;2023-05-25T08:31:53;45186.16;;;-144.44;88.37
7836;BME280;3963;42.658;23.298;2023-05-25T08:34:19;45211.84;;;-144.44;89.32
7836;BME280;3963;42.658;23.298;2023-05-25T08:36:46;45201.97;;;-144.44;89.50
7836;BME280;3963;42.658;23.298;2023-05-25T08:39:13;45219.75;;;-144.44;92.23
7836;BME280;3963;42.658;23.298;2023-05-25T08:41:43;45217.78;;;-144.44;93.15
7836;BME280;3963;42.658;23.298;2023-05-25T08:44:10;45229.63;;;-144.44;93.59
7836;BME280;3963;42.658;23.298;2023-05-25T08:46:39;45231.59;;;-144.44;96.19
7836;BME280;3963;42.658;23.298;2023-05-25T08:49:08;45265.22;;;-144.44;99.85
7836;BME280;3963;42.658;23.298;2023-05-25T08:51:37;45279.03;;;-144.44;100.00
7836;BME280;3963;42.658;23.298;2023-05-25T08:54:06;45271.13;;;-144.44;100.00
7836;BME280;3963;42.658;23.298;2023-05-25T08:56:40;45308.69;;;-144.44;100.00
7836;BME280;3963;42.658;23.298;2023-05-25T08:59:19;45383.78;;;-144.44;100.00
7836;BME280;3963;42.658;23.298;2023-05-25T09:01:55;45403.53;;;-144.44;100.00
7836;BME280;3963;42.658;23.298;2023-05-25T09:04:23;45480.63;;;-144.44;100.00
7836;BME280;3963;42.658;23.298;2023-05-25T09:06:50;45472.72;;;-144.44;100.00
7836;BME280;3963;42.658;23.298;2023-05-25T09:09:17;45609.09;;;-144.44;100.00
7836;BME280;3963;42.658;23.298;2023-05-25T09:11:44;45476.66;;;-144.44;100.00
7836;BME280;3963;42.658;23.298;2023-05-25T09:14:13;45429.25;;;-144.44;100.00
7836;BME280;3963;42.658;23.298;2023-05-25T09:16:40;45332.41;;;-144.44;100.00
7836;BME280;3963;42.658;23.298;2023-05-25T09:19:07;45354.13;;;-144.44;100.00
7836;BME280;3963;42.658;23.298;2023-05-25T09:21:34;45350.19;;;-144.44;100.00
7836;BME280;3963;42.658;23.298;2023-05-25T09:24:01;45391.69;;;-144.44;100.00
7836;BME280;3963;42.658;23.298;2023-05-25T09:26:28;45492.47;;;-144.44;100.00
7836;BME280;3963;42.658;23.298;2023-05-25T09:28:55;45579.44;;;-144.44;100.00
7836;BME280;3963;42.658;23.298;2023-05-25T09:31:23;45832.44;;;-144.44;100.00
7836;BME280;3963;42.658;23.298;2023-05-25T09:33:50;46449.19;;;-144.44;100.00
7836;BME280;3963;42.658;23.298;2023-05-25T09:36:20;46121.03;;;-144.44;100.00
7836;BME280;3963;42.658;23.298;2023-05-25T09:38:47;46852.53;;;-144.44;100.00
7836;BME280;3963;42.658;23.298;2023-05-25T09:41:14;46751.69;;;-144.44;100.00
7836;BME280;3963;42.658;23.298;2023-05-25T09:43:41;48533.56;;;-144.44;100.00
7836;BME280;3963;42.658;23.298;2023-05-25T09:46:08;49281.41;;;-144.44;100.00
7836;BME280;3963;42.658;23.298;2023-05-25T09:48:36;46789.25;;;-144.44;100.00
7836;BME280;3963;42.658;23.298;2023-05-25T09:51:05;49552.50;;;-144.44;100.00
7836;BME280;3963;42.658;23.298;2023-05-25T09:53:32;53290.50;;;-144.44;100.00
7836;BME280;3963;42.658;23.298;2023-05-25T09:55:59;56306.88;;;-144.44;100.00
7836;BME280;3963;42.658;23.298;2023-05-25T09:58:26;55995.63;;;-144.44;100.00
7836;BME280;3963;42.658;23.298;2023-05-25T10:00:53;55472.25;;;-144.44;100.00
7836;BME280;3963;42.658;23.298;2023-05-25T10:03:20;49109.28;;;-144.44;100.00
7836;BME280;3963;42.658;23.298;2023-05-25T10:05:51;47926.31;;;-144.44;100.00
7836;BME280;3963;42.658;23.298;2023-05-25T10:08:19;47354.78;;;-144.44;100.00
7836;BME280;3963;42.658;23.298;2023-05-25T10:10:48;46318.72;;;-144.44;100.00
7836;BME280;3963;42.658;23.298;2023-05-25T10:13:19;46577.72;;;-144.44;100.00
7836;BME280;3963;42.658;23.298;2023-05-25T10:15:47;46463.03;;;-144.44;100.00
7836;BME280;3963;42.658;23.298;2023-05-25T10:18:15;46040.00;;;-144.44;100.00
7836;BME280;3963;42.658;23.298;2023-05-25T10:20:43;45887.78;;;-144.44;100.00
7836;BME280;3963;42.658;23.298;2023-05-25T10:23:15;45958.94;;;-144.44;100.00
7836;BME280;3963;42.658;23.298;2023-05-25T10:25:43;45879.88;;;-144.44;100.00
7836;BME280;3963;42.658;23.298;2023-05-25T10:28:15;45919.41;;;-144.44;100.00
7836;BME280;3963;42.658;23.298;2023-05-25T10:30:45;45709.91;;;-144.44;100.00
7836;BME280;3963;42.658;23.298;2023-05-25T10:33:13;45589.34;;;-144.44;100.00
7836;BME280;3963;42.658;23.298;2023-05-25T10:35:42;45547.81;;;-144.44;100.00
7836;BME280;3963;42.658;23.298;2023-05-25T10:38:09;45549.81;;;-144.44;100.00
7836;BME280;3963;42.658;23.298;2023-05-25T10:40:39;45539.91;;;-144.44;100.00
7836;BME280;3963;42.658;23.298;2023-05-25T10:43:06;45494.47;;;-144.44;100.00
7836;BME280;3963;42.658;23.298;2023-05-25T10:45:33;45526.09;;;-144.44;100.00
7836;BME280;3963;42.658;23.298;2023-05-25T10:48:00;45500.38;;;-144.44;100.00
7836;BME280;3963;42.658;23.298;2023-05-25T10:50:35;45551.78;;;-144.44;100.00
7836;BME280;3963;42.658;23.298;2023-05-25T10:53:04;45450.97;;;-144.44;100.00
7836;BME280;3963;42.658;23.298;2023-05-25T10:55:43;45395.66;;;-144.44;100.00
7836;BME280;3963;42.658;23.298;2023-05-25T10:58:15;45449.00;;;-144.44;100.00
7836;BME280;3963;42.658;23.298;2023-05-25T11:00:42;45413.44;;;-144.44;100.00
7836;BME280;3963;42.658;23.298;2023-05-25T11:03:22;45401.56;;;-144.44;100.00
7836;BME280;3963;42.658;23.298;2023-05-25T11:06:09;45407.50;;;-144.44;100.00
7836;BME280;3963;42.658;23.298;2023-05-25T11:08:47;45425.28;;;-144.44;100.00
7836;BME280;3963;42.658;23.298;2023-05-25T11:11:16;45425.28;;;-144.44;100.00
7836;BME280;3963;42.658;23.298;2023-05-25T11:13:44;45421.34;;;-144.44;100.00
7836;BME280;3963;42.658;23.298;2023-05-25T11:16:18;45403.53;;;-144.44;100.00
7836;BME280;3963;42.658;23.298;2023-05-25T11:18:50;45393.66;;;-144.44;100.00
7836;BME280;3963;42.658;23.298;2023-05-25T11:21:21;45409.47;;;-144.44;100.00
7836;BME280;3963;42.658;23.298;2023-05-25T11:23:53;45348.22;;;-144.44;100.00
7836;BME280;3963;42.658;23.298;2023-05-25T11:26:22;45358.09;;;-144.44;100.00
7836;BME280;3963;42.658;23.298;2023-05-25T11:28:51;45381.81;;;-144.44;100.00
7836;BME280;3963;42.658;23.298;2023-05-25T11:31:26;45318.56;;;-144.44;100.00
7836;BME280;3963;42.658;23.298;2023-05-25T11:33:55;45344.25;;;-144.44;99.78
7836;BME280;3963;42.658;23.298;2023-05-25T11:36:27;45314.63;;;-144.44;98.16
7836;BME280;3963;42.658;23.298;2023-05-25T11:38:56;45304.72;;;-144.44;98.24
7836;BME280;3963;42.658;23.298;2023-05-25T11:41:27;45298.81;;;-144.44;96.34
7836;BME280;3963;42.658;23.298;2023-05-25T11:43:54;45300.78;;;-144.44;96.91
7836;BME280;3963;42.658;23.298;2023-05-25T11:46:21;45267.19;;;-144.44;93.24
7836;BME280;3963;42.658;23.298;2023-05-25T11:48:50;45288.91;;;-144.44;92.43
7836;BME280;3963;42.658;23.298;2023-05-25T11:51:18;45261.25;;;-144.44;91.82
7836;BME280;3963;42.658;23.298;2023-05-25T11:53:45;45267.19;;;-144.44;93.65
7836;BME280;3963;42.658;23.298;2023-05-25T11:56:13;45279.03;;;-144.44;93.39
7836;BME280;3963;42.658;23.298;2023-05-25T11:58:42;45271.13;;;-144.44;93.58
7836;BME280;3963;42.658;23.298;2023-05-25T12:01:14;45279.03;;;-144.44;94.66
7836;BME280;3963;42.658;23.298;2023-05-25T12:03:43;45271.13;;;-144.44;94.68
7836;BME280;3963;42.658;23.298;2023-05-25T12:06:22;45308.69;;;-144.44;95.82
7836;BME280;3963;42.658;23.298;2023-05-25T12:08:49;45310.66;;;-144.44;97.05
7836;BME280;3963;42.658;23.298;2023-05-25T12:11:16;45302.75;;;-144.44;97.40
7836;BME280;3963;42.658;23.298;2023-05-25T12:13:46;45326.47;;;-144.44;98.99
7836;BME280;3963;42.658;23.298;2023-05-25T12:16:13;45310.66;;;-144.44;98.89
7836;BME280;3963;42.658;23.298;2023-05-25T12:18:39;45318.56;;;-144.44;99.31
7836;BME280;3963;42.658;23.298;2023-05-25T12:21:06;45318.56;;;-144.44;98.64
7836;BME280;3963;42.658;23.298;2023-05-25T12:23:35;45310.66;;;-144.44;93.32
7836;BME280;3963;42.658;23.298;2023-05-25T12:26:08;45316.59;;;-144.44;94.89
7836;BME280;3963;42.658;23.298;2023-05-25T12:28:35;45328.44;;;-144.44;92.04
7836;BME280;3963;42.658;23.298;2023-05-25T12:31:22;45352.16;;;-144.44;91.09
7836;BME280;3963;42.658;23.298;2023-05-25T12:34:05;45318.56;;;-144.44;88.20
7836;BME280;3963;42.658;23.298;2023-05-25T12:36:40;45314.63;;;-144.44;86.01
7836;BME280;3963;42.658;23.298;2023-05-25T12:39:08;45332.41;;;-144.44;85.37
7836;BME280;3963;42.658;23.298;2023-05-25T12:41:46;45322.53;;;-144.44;84.12
7836;BME280;3963;42.658;23.298;2023-05-25T12:44:20;45302.75;;;-144.44;85.27
7836;BME280;3963;42.658;23.298;2023-05-25T12:46:50;45302.75;;;-144.44;83.91
7836;BME280;3963;42.658;23.298;2023-05-25T12:49:24;45300.78;;;-144.44;83.36